createdAt,value
2019-06-20T00:00:29.595Z,91.01
2019-06-20T00:01:29.571Z,91.01
2019-06-20T00:02:29.556Z,91.25
2019-06-20T00:03:29.544Z,91.46
2019-06-20T00:04:29.530Z,91.31
2019-06-20T00:05:29.538Z,91.21
2019-06-20T00:06:29.508Z,91.21
2019-06-20T00:07:29.498Z,90.41
2019-06-20T00:08:29.485Z,90.30
2019-06-20T00:09:29.472Z,90.61
2019-06-20T00:10:29.484Z,89.70
2019-06-20T00:11:29.446Z,89.29
2019-06-20T00:12:29.436Z,88.54
2019-06-20T00:13:29.438Z,88.45
2019-06-20T00:14:29.411Z,87.94
2019-06-20T00:15:29.417Z,87.90
2019-06-20T00:16:29.413Z,87.49
2019-06-20T00:17:29.377Z,87.60
2019-06-20T00:18:29.363Z,87.19
2019-06-20T00:19:29.358Z,87.80
2019-06-20T00:20:29.438Z,87.90
2019-06-20T00:21:29.351Z,87.94
2019-06-20T00:22:29.385Z,87.90
2019-06-20T00:23:29.304Z,87.80
2019-06-20T00:24:29.302Z,87.80
2019-06-20T00:25:29.280Z,88.30
2019-06-20T00:26:29.285Z,88.20
2019-06-20T00:27:29.256Z,88.75
2019-06-20T00:28:29.247Z,89.51
2019-06-20T00:29:29.237Z,89.25
2019-06-20T00:30:29.225Z,89.25
2019-06-20T00:31:29.226Z,89.35
2019-06-20T00:32:29.202Z,89.15
2019-06-20T00:33:29.185Z,89.75
2019-06-20T00:34:29.175Z,89.86
2019-06-20T00:35:29.161Z,89.79
2019-06-20T00:36:29.177Z,90.66
2019-06-20T00:37:29.138Z,90.16
2019-06-20T00:38:29.129Z,90.16
2019-06-20T00:39:29.123Z,90.26
2019-06-20T00:40:29.110Z,90.26
2019-06-20T00:41:29.111Z,89.65
2019-06-20T00:42:29.084Z,89.86
2019-06-20T00:43:29.073Z,89.95
2019-06-20T00:44:29.089Z,90.32
2019-06-20T00:45:29.053Z,89.91
2019-06-20T00:46:29.074Z,90.62
2019-06-20T00:47:29.021Z,89.91
2019-06-20T00:48:29.010Z,90.52
2019-06-20T00:49:28.996Z,89.71
2019-06-20T00:50:28.986Z,89.61
2019-06-20T00:51:28.975Z,90.01
2019-06-20T00:52:28.985Z,89.71
2019-06-20T00:53:28.954Z,89.95
2019-06-20T00:54:28.941Z,89.81
2019-06-20T00:55:28.934Z,90.42
2019-06-20T00:56:28.916Z,89.71
2019-06-20T00:57:28.930Z,89.41
2019-06-20T00:58:28.897Z,89.91
2019-06-20T00:59:28.895Z,89.81
2019-06-20T01:00:28.869Z,90.11
2019-06-20T01:01:28.858Z,90.01
2019-06-20T01:02:28.868Z,90.11
2019-06-20T01:03:28.841Z,89.91
2019-06-20T01:04:28.832Z,89.81
2019-06-20T01:05:28.810Z,88.86
2019-06-20T01:06:28.879Z,88.90
2019-06-20T01:07:28.811Z,88.86
2019-06-20T01:08:28.778Z,89.21
2019-06-20T01:09:28.767Z,89.06
2019-06-20T01:10:28.756Z,89.26
2019-06-20T01:11:28.773Z,88.96
2019-06-20T01:12:28.736Z,89.37
2019-06-20T01:13:33.571Z,89.01
2019-06-20T01:14:29.707Z,88.86
2019-06-20T01:15:28.707Z,88.36
2019-06-20T01:16:28.716Z,88.26
2019-06-20T01:17:28.680Z,88.26
2019-06-20T01:18:28.682Z,88.86
2019-06-20T01:19:28.653Z,89.21
2019-06-20T01:20:28.641Z,88.30
2019-06-20T01:21:28.650Z,88.81
2019-06-20T01:22:28.614Z,89.26
2019-06-20T01:23:28.603Z,89.21
2019-06-20T01:24:28.634Z,89.61
2019-06-20T01:25:28.579Z,89.51
2019-06-20T01:26:28.589Z,89.31
2019-06-20T01:27:28.555Z,89.61
2019-06-20T01:28:28.545Z,89.86
2019-06-20T01:29:28.532Z,89.81
2019-06-20T01:30:28.533Z,89.41
2019-06-20T01:31:28.527Z,89.71
2019-06-20T01:32:28.530Z,90.11
2019-06-20T01:33:28.490Z,89.11
2019-06-20T01:34:28.474Z,89.21
2019-06-20T01:35:28.461Z,88.90
2019-06-20T01:36:28.472Z,89.51
2019-06-20T01:37:28.449Z,89.31
2019-06-20T01:38:28.441Z,88.10
2019-06-20T01:39:28.415Z,87.60
2019-06-20T01:40:28.413Z,88.06
2019-06-20T01:41:28.414Z,87.76
2019-06-20T01:42:28.379Z,86.85
2019-06-20T01:43:28.371Z,86.24
2019-06-20T01:44:28.362Z,87.35
2019-06-20T01:45:28.351Z,85.94
2019-06-20T01:46:28.370Z,86.55
2019-06-20T01:47:28.325Z,86.65
2019-06-20T01:48:28.314Z,86.04
2019-06-20T01:49:28.298Z,86.04
2019-06-20T01:50:28.288Z,86.24
2019-06-20T01:51:28.276Z,86.44
2019-06-20T01:52:28.288Z,86.85
2019-06-20T01:53:28.253Z,85.94
2019-06-20T01:54:28.240Z,86.24
2019-06-20T01:55:28.267Z,86.35
2019-06-20T01:56:28.222Z,86.44
2019-06-20T01:57:28.225Z,86.15
2019-06-20T01:58:28.194Z,86.35
2019-06-20T01:59:28.183Z,86.04
2019-06-20T02:00:28.169Z,85.94
2019-06-20T02:01:28.158Z,85.84
2019-06-20T02:02:28.166Z,85.94
2019-06-20T02:03:28.143Z,85.90
2019-06-20T02:04:28.127Z,86.30
2019-06-20T02:05:28.114Z,86.55
2019-06-20T02:06:28.107Z,85.90
2019-06-20T02:07:28.442Z,85.90
2019-06-20T02:08:28.084Z,85.80
2019-06-20T02:09:28.075Z,85.70
2019-06-20T02:10:28.055Z,86.30
2019-06-20T02:11:28.042Z,86.10
2019-06-20T02:12:28.051Z,86.24
2019-06-20T02:13:28.018Z,86.41
2019-06-20T02:14:28.016Z,86.51
2019-06-20T02:15:27.995Z,86.71
2019-06-20T02:16:27.984Z,86.81
2019-06-20T02:17:27.997Z,86.30
2019-06-20T02:18:27.966Z,87.41
2019-06-20T02:19:27.950Z,86.91
2019-06-20T02:20:27.937Z,86.81
2019-06-20T02:21:27.928Z,86.91
2019-06-20T02:22:27.915Z,86.71
2019-06-20T02:23:27.923Z,86.71
2019-06-20T02:24:27.926Z,87.21
2019-06-20T02:25:28.033Z,87.01
2019-06-20T02:26:27.867Z,87.11
2019-06-20T02:27:27.857Z,87.11
2019-06-20T02:28:27.862Z,87.21
2019-06-20T02:29:27.833Z,86.91
2019-06-20T02:30:27.833Z,86.91
2019-06-20T02:31:27.811Z,87.21
2019-06-20T02:32:27.797Z,86.85
2019-06-20T02:33:27.806Z,87.11
2019-06-20T02:34:27.780Z,87.11
2019-06-20T02:35:27.763Z,87.35
2019-06-20T02:36:27.757Z,87.15
2019-06-20T02:37:27.742Z,87.35
2019-06-20T02:38:27.749Z,87.92
2019-06-20T02:39:27.718Z,87.25
2019-06-20T02:40:27.710Z,87.55
2019-06-20T02:41:27.695Z,88.26
2019-06-20T02:42:27.685Z,87.55
2019-06-20T02:43:27.715Z,87.96
2019-06-20T02:44:30.542Z,88.16
2019-06-20T02:45:27.658Z,88.16
2019-06-20T02:46:27.638Z,88.16
2019-06-20T02:47:27.635Z,87.76
2019-06-20T02:48:27.621Z,88.16
2019-06-20T02:49:27.620Z,88.06
2019-06-20T02:50:27.594Z,87.96
2019-06-20T02:51:27.577Z,88.46
2019-06-20T02:52:27.569Z,88.30
2019-06-20T02:53:27.561Z,88.06
2019-06-20T02:54:27.563Z,88.86
2019-06-20T02:55:27.533Z,89.06
2019-06-20T02:56:27.527Z,89.26
2019-06-20T02:57:27.558Z,89.26
2019-06-20T02:58:27.523Z,89.57
2019-06-20T02:59:27.503Z,89.26
2019-06-20T03:00:27.471Z,89.77
2019-06-20T03:01:27.471Z,89.37
2019-06-20T03:02:27.452Z,89.37
2019-06-20T03:03:27.455Z,89.26
2019-06-20T03:04:27.473Z,89.06
2019-06-20T03:05:27.419Z,89.31
2019-06-20T03:06:27.422Z,89.37
2019-06-20T03:07:27.391Z,89.47
2019-06-20T03:08:27.381Z,88.96
2019-06-20T03:09:27.412Z,89.17
2019-06-20T03:10:27.356Z,89.26
2019-06-20T03:11:27.346Z,89.26
2019-06-20T03:12:27.341Z,88.96
2019-06-20T03:13:27.324Z,89.37
2019-06-20T03:14:27.315Z,89.17
2019-06-20T03:15:27.326Z,89.37
2019-06-20T03:16:27.289Z,89.37
2019-06-20T03:17:27.276Z,88.76
2019-06-20T03:18:27.266Z,89.26
2019-06-20T03:19:27.254Z,89.37
2019-06-20T03:20:27.262Z,89.17
2019-06-20T03:21:27.229Z,89.37
2019-06-20T03:22:27.223Z,89.37
2019-06-20T03:23:27.209Z,89.26
2019-06-20T03:24:27.197Z,89.47
2019-06-20T03:25:27.205Z,89.32
2019-06-20T03:26:27.173Z,89.57
2019-06-20T03:27:27.166Z,89.47
2019-06-20T03:28:27.150Z,89.26
2019-06-20T03:29:27.136Z,89.17
2019-06-20T03:30:27.145Z,88.96
2019-06-20T03:31:27.116Z,88.96
2019-06-20T03:32:27.103Z,88.96
2019-06-20T03:33:27.101Z,89.26
2019-06-20T03:34:27.083Z,89.47
2019-06-20T03:35:27.089Z,89.37
2019-06-20T03:36:27.058Z,89.17
2019-06-20T03:37:27.045Z,89.17
2019-06-20T03:38:27.031Z,89.17
2019-06-20T03:39:27.021Z,88.96
2019-06-20T03:40:27.030Z,88.56
2019-06-20T03:41:27.003Z,88.76
2019-06-20T03:42:26.993Z,89.06
2019-06-20T03:43:26.977Z,89.37
2019-06-20T03:44:26.962Z,89.26
2019-06-20T03:45:26.970Z,89.17
2019-06-20T03:46:26.941Z,89.26
2019-06-20T03:47:26.999Z,89.26
2019-06-20T03:48:26.917Z,89.06
2019-06-20T03:49:26.924Z,89.06
2019-06-20T03:50:26.911Z,89.06
2019-06-20T03:51:26.883Z,89.26
2019-06-20T03:52:26.870Z,89.17
2019-06-20T03:53:26.857Z,89.37
2019-06-20T03:54:26.846Z,89.17
2019-06-20T03:55:26.860Z,89.26
2019-06-20T03:56:26.832Z,88.96
2019-06-20T03:57:26.812Z,89.17
2019-06-20T03:58:26.798Z,89.47
2019-06-20T03:59:26.786Z,88.96
2019-06-20T04:00:26.796Z,89.06
2019-06-20T04:01:26.765Z,89.37
2019-06-20T04:02:26.753Z,89.37
2019-06-20T04:03:26.742Z,89.37
2019-06-20T04:04:26.733Z,89.06
2019-06-20T04:05:26.740Z,89.17
2019-06-20T04:06:26.714Z,89.26
2019-06-20T04:07:26.695Z,89.17
2019-06-20T04:08:26.686Z,89.77
2019-06-20T04:09:26.673Z,88.86
2019-06-20T04:10:26.683Z,89.21
2019-06-20T04:11:26.651Z,89.57
2019-06-20T04:12:26.638Z,89.17
2019-06-20T04:13:26.633Z,89.57
2019-06-20T04:14:26.616Z,89.31
2019-06-20T04:15:26.623Z,89.37
2019-06-20T04:16:26.590Z,89.77
2019-06-20T04:17:26.580Z,89.47
2019-06-20T04:18:26.581Z,89.26
2019-06-20T04:19:26.561Z,88.76
2019-06-20T04:20:26.546Z,89.17
2019-06-20T04:21:26.554Z,89.26
2019-06-20T04:22:26.520Z,89.17
2019-06-20T04:23:26.510Z,89.17
2019-06-20T04:24:27.966Z,88.36
2019-06-20T04:25:26.486Z,88.66
2019-06-20T04:26:26.499Z,88.06
2019-06-20T04:27:26.469Z,88.56
2019-06-20T04:28:26.463Z,88.66
2019-06-20T04:29:26.441Z,88.76
2019-06-20T04:30:26.430Z,88.32
2019-06-20T04:31:26.441Z,88.26
2019-06-20T04:32:26.409Z,87.55
2019-06-20T04:33:26.401Z,87.85
2019-06-20T04:34:26.381Z,87.76
2019-06-20T04:35:26.376Z,88.16
2019-06-20T04:36:26.384Z,88.02
2019-06-20T04:37:26.352Z,87.85
2019-06-20T04:38:26.336Z,87.85
2019-06-20T04:39:26.328Z,88.12
2019-06-20T04:40:26.317Z,87.41
2019-06-20T04:41:26.323Z,87.41
2019-06-20T04:42:26.294Z,87.41
2019-06-20T04:43:26.284Z,87.21
2019-06-20T04:44:26.270Z,87.31
2019-06-20T04:45:34.968Z,87.71
2019-06-20T04:46:27.265Z,86.81
2019-06-20T04:47:26.232Z,86.91
2019-06-20T04:48:26.223Z,87.31
2019-06-20T04:49:26.211Z,87.21
2019-06-20T04:50:26.207Z,87.92
2019-06-20T04:51:26.207Z,87.21
2019-06-20T04:52:26.176Z,87.01
2019-06-20T04:53:26.164Z,87.35
2019-06-20T04:54:26.157Z,87.11
2019-06-20T04:55:26.157Z,87.85
2019-06-20T04:56:26.148Z,87.11
2019-06-20T04:57:26.120Z,87.01
2019-06-20T04:58:26.109Z,86.16
2019-06-20T04:59:26.092Z,85.96
2019-06-20T05:00:26.084Z,85.66
2019-06-20T05:01:26.090Z,85.25
2019-06-20T05:02:26.060Z,85.05
2019-06-20T05:03:26.048Z,84.91
2019-06-20T05:04:26.037Z,84.55
2019-06-20T05:05:26.025Z,84.85
2019-06-20T05:06:26.032Z,85.16
2019-06-20T05:07:26.002Z,85.25
2019-06-20T05:08:25.992Z,85.16
2019-06-20T05:09:25.982Z,84.55
2019-06-20T05:10:25.972Z,84.81
2019-06-20T05:11:25.977Z,84.11
2019-06-20T05:12:25.945Z,84.51
2019-06-20T05:13:25.933Z,84.31
2019-06-20T05:14:25.920Z,83.67
2019-06-20T05:15:25.908Z,83.87
2019-06-20T05:16:25.920Z,83.37
2019-06-20T05:17:25.888Z,83.67
2019-06-20T05:18:25.880Z,83.31
2019-06-20T05:19:25.863Z,84.11
2019-06-20T05:20:25.853Z,83.91
2019-06-20T05:21:25.862Z,84.11
2019-06-20T05:22:25.841Z,84.91
2019-06-20T05:23:25.862Z,83.84
2019-06-20T05:24:25.804Z,83.40
2019-06-20T05:25:25.806Z,83.47
2019-06-20T05:26:25.801Z,83.81
2019-06-20T05:27:25.770Z,83.81
2019-06-20T05:28:25.762Z,84.07
2019-06-20T05:29:25.750Z,84.61
2019-06-20T05:30:25.735Z,85.11
2019-06-20T05:31:25.746Z,86.22
2019-06-20T05:32:25.717Z,85.72
2019-06-20T05:33:25.703Z,86.43
2019-06-20T05:34:25.690Z,87.33
2019-06-20T05:35:25.680Z,87.98
2019-06-20T05:36:25.691Z,87.73
2019-06-20T05:37:25.666Z,86.83
2019-06-20T05:38:25.643Z,87.43
2019-06-20T05:39:25.632Z,88.23
2019-06-20T05:40:25.627Z,87.98
2019-06-20T05:41:25.632Z,88.18
2019-06-20T05:42:25.602Z,88.28
2019-06-20T05:43:25.586Z,89.28
2019-06-20T05:44:25.576Z,87.98
2019-06-20T05:45:25.568Z,88.18
2019-06-20T05:46:25.551Z,88.48
2019-06-20T05:47:25.561Z,88.28
2019-06-20T05:48:25.529Z,89.39
2019-06-20T05:49:25.521Z,89.23
2019-06-20T05:50:25.506Z,89.43
2019-06-20T05:51:25.495Z,89.63
2019-06-20T05:52:25.518Z,89.63
2019-06-20T05:53:25.474Z,89.99
2019-06-20T05:54:25.454Z,90.09
2019-06-20T05:55:25.445Z,89.12
2019-06-20T05:56:26.047Z,89.12
2019-06-20T05:57:25.423Z,89.32
2019-06-20T05:58:25.428Z,89.53
2019-06-20T05:59:25.770Z,89.53
2019-06-20T06:00:25.383Z,89.53
2019-06-20T06:01:26.362Z,89.32
2019-06-20T06:02:25.371Z,89.32
2019-06-20T06:03:25.370Z,90.03
2019-06-20T06:04:25.343Z,90.13
2019-06-20T06:05:25.324Z,89.17
2019-06-20T06:06:25.322Z,89.17
2019-06-20T06:07:25.302Z,89.87
2019-06-20T06:08:25.317Z,90.78
2019-06-20T06:09:25.280Z,90.73
2019-06-20T06:10:25.269Z,89.93
2019-06-20T06:11:25.265Z,89.67
2019-06-20T06:12:25.248Z,89.63
2019-06-20T06:13:25.251Z,89.43
2019-06-20T06:14:25.254Z,89.08
2019-06-20T06:15:25.208Z,89.28
2019-06-20T06:16:27.496Z,89.18
2019-06-20T06:17:25.184Z,89.14
2019-06-20T06:18:25.192Z,88.13
2019-06-20T06:19:25.161Z,87.13
2019-06-20T06:20:25.152Z,87.19
2019-06-20T06:21:32.299Z,86.99
2019-06-20T06:22:25.153Z,87.39
2019-06-20T06:23:25.134Z,86.58
2019-06-20T06:24:25.135Z,86.28
2019-06-20T06:25:25.087Z,85.98
2019-06-20T06:26:25.089Z,85.74
2019-06-20T06:27:25.068Z,86.44
2019-06-20T06:28:25.072Z,86.04
2019-06-20T06:29:25.049Z,86.44
2019-06-20T06:30:25.027Z,86.04
2019-06-20T06:31:25.018Z,86.08
2019-06-20T06:32:39.237Z,85.74
2019-06-20T06:33:26.014Z,84.94
2019-06-20T06:34:24.982Z,85.14
2019-06-20T06:35:25.102Z,84.53
2019-06-20T06:36:24.956Z,84.43
2019-06-20T06:37:24.949Z,84.83
2019-06-20T06:38:24.936Z,83.93
2019-06-20T06:39:24.941Z,84.53
2019-06-20T06:40:24.911Z,84.53
2019-06-20T06:41:24.902Z,84.39
2019-06-20T06:42:24.895Z,83.33
2019-06-20T06:43:25.043Z,83.49
2019-06-20T06:44:24.938Z,83.69
2019-06-20T06:45:24.874Z,82.68
2019-06-20T06:46:24.850Z,83.59
2019-06-20T06:47:24.834Z,83.39
2019-06-20T06:48:24.834Z,83.99
2019-06-20T06:49:24.844Z,84.55
2019-06-20T06:50:24.795Z,84.81
2019-06-20T06:51:24.834Z,84.85
2019-06-20T06:52:24.772Z,83.21
2019-06-20T06:53:24.906Z,82.81
2019-06-20T06:54:24.763Z,82.40
2019-06-20T06:55:27.516Z,82.34
2019-06-20T06:56:24.736Z,81.90
2019-06-20T06:57:24.714Z,82.90
2019-06-20T06:58:24.703Z,81.00
2019-06-20T06:59:24.711Z,81.40
2019-06-20T07:00:24.678Z,81.94
2019-06-20T07:01:24.675Z,82.31
2019-06-20T07:02:24.654Z,81.36
2019-06-20T07:03:24.643Z,80.46
2019-06-20T07:04:24.633Z,80.36
2019-06-20T07:05:24.637Z,79.62
2019-06-20T07:06:24.716Z,79.32
2019-06-20T07:07:24.598Z,80.12
2019-06-20T07:08:24.589Z,78.42
2019-06-20T07:09:24.576Z,76.78
2019-06-20T07:10:24.617Z,77.28
2019-06-20T07:11:24.551Z,78.68
2019-06-20T07:12:24.548Z,78.18
2019-06-20T07:13:24.528Z,77.28
2019-06-20T07:14:24.525Z,77.08
2019-06-20T07:15:24.525Z,77.31
2019-06-20T07:16:24.495Z,78.42
2019-06-20T07:17:24.485Z,77.87
2019-06-20T07:18:24.475Z,76.91
2019-06-20T07:19:24.461Z,77.48
2019-06-20T07:20:24.465Z,76.98
2019-06-20T07:21:24.439Z,75.84
2019-06-20T07:22:24.424Z,76.30
2019-06-20T07:23:24.413Z,74.70
2019-06-20T07:24:24.405Z,75.20
2019-06-20T07:25:24.433Z,74.20
2019-06-20T07:26:24.379Z,74.00
2019-06-20T07:27:24.369Z,74.70
2019-06-20T07:28:24.356Z,74.80
2019-06-20T07:29:24.344Z,74.30
2019-06-20T07:30:24.332Z,74.80
2019-06-20T07:31:24.338Z,75.20
2019-06-20T07:32:24.383Z,75.16
2019-06-20T07:33:24.295Z,74.20
2019-06-20T07:34:24.289Z,74.70
2019-06-20T07:35:24.272Z,74.50
2019-06-20T07:36:24.279Z,75.43
2019-06-20T07:37:24.247Z,74.93
2019-06-20T07:38:24.246Z,74.93
2019-06-20T07:39:24.227Z,75.54
2019-06-20T07:40:24.213Z,75.93
2019-06-20T07:41:24.218Z,75.63
2019-06-20T07:42:24.195Z,75.74
2019-06-20T07:43:24.179Z,75.77
2019-06-20T07:44:24.208Z,76.28
2019-06-20T07:45:27.134Z,76.98
2019-06-20T07:46:24.162Z,75.97
2019-06-20T07:47:24.131Z,76.17
2019-06-20T07:48:24.128Z,77.08
2019-06-20T07:49:24.107Z,77.28
2019-06-20T07:50:24.097Z,77.11
2019-06-20T07:51:24.160Z,78.31
2019-06-20T07:52:24.074Z,76.91
2019-06-20T07:53:24.067Z,76.81
2019-06-20T07:54:24.057Z,75.91
2019-06-20T07:55:24.040Z,77.31
2019-06-20T07:56:24.045Z,77.21
2019-06-20T07:57:24.022Z,77.91
2019-06-20T07:58:24.003Z,76.98
2019-06-20T07:59:23.995Z,76.74
2019-06-20T08:00:24.005Z,75.84
2019-06-20T08:01:23.991Z,75.04
2019-06-20T08:02:23.957Z,74.06
2019-06-20T08:03:23.948Z,69.62
2019-06-20T08:04:23.933Z,68.10
2019-06-20T08:05:23.923Z,66.08
2019-06-20T08:06:23.930Z,62.54
2019-06-20T08:07:23.901Z,60.30
2019-06-20T08:08:23.888Z,58.69
2019-06-20T08:09:23.878Z,59.42
2019-06-20T08:10:23.893Z,56.30
2019-06-20T08:11:23.873Z,56.63
2019-06-20T08:12:23.847Z,55.00
2019-06-20T08:13:23.831Z,52.63
2019-06-20T08:14:23.821Z,52.93
2019-06-20T08:15:23.809Z,52.93
2019-06-20T08:16:23.816Z,51.79
2019-06-20T08:17:34.697Z,51.12
2019-06-20T08:18:24.797Z,52.04
2019-06-20T08:19:23.765Z,50.88
2019-06-20T08:20:23.754Z,52.98
2019-06-20T08:21:23.762Z,51.10
2019-06-20T08:22:23.734Z,53.18
2019-06-20T08:23:23.721Z,53.62
2019-06-20T08:24:23.711Z,51.13
2019-06-20T08:25:23.699Z,51.92
2019-06-20T08:26:23.684Z,50.61
2019-06-20T08:27:23.694Z,51.92
2019-06-20T08:28:23.663Z,51.07
2019-06-20T08:29:23.661Z,51.72
2019-06-20T08:30:23.644Z,52.86
2019-06-20T08:31:23.631Z,54.54
2019-06-20T08:32:23.667Z,55.53
2019-06-20T08:33:23.611Z,54.04
2019-06-20T08:34:23.598Z,52.31
2019-06-20T08:35:23.594Z,53.00
2019-06-20T08:36:23.579Z,50.83
2019-06-20T08:37:23.606Z,50.95
2019-06-20T08:38:23.558Z,48.82
2019-06-20T08:39:23.545Z,46.78
2019-06-20T08:40:23.531Z,47.59
2019-06-20T08:41:23.520Z,44.43
2019-06-20T08:42:23.509Z,43.51
2019-06-20T08:43:23.523Z,43.95
2019-06-20T08:44:23.488Z,41.94
2019-06-20T08:45:23.480Z,44.96
2019-06-20T08:46:23.469Z,46.90
2019-06-20T08:47:23.457Z,46.55
2019-06-20T08:48:23.475Z,47.60
2019-06-20T08:49:23.441Z,49.03
2019-06-20T08:50:23.426Z,50.90
2019-06-20T08:51:23.414Z,51.42
2019-06-20T08:52:23.417Z,47.18
2019-06-20T08:53:23.422Z,49.99
2019-06-20T08:54:23.381Z,48.54
2019-06-20T08:55:23.370Z,47.97
2019-06-20T08:56:23.363Z,48.80
2019-06-20T08:57:23.498Z,51.20
2019-06-20T08:58:23.357Z,51.13
2019-06-20T08:59:24.786Z,52.51
2019-06-20T09:00:23.362Z,50.90
2019-06-20T09:01:23.348Z,49.48
2019-06-20T09:02:23.309Z,50.48
2019-06-20T09:03:23.299Z,50.56
2019-06-20T09:04:23.274Z,52.81
2019-06-20T09:05:23.263Z,55.54
2019-06-20T09:06:23.250Z,52.86
2019-06-20T09:07:23.238Z,55.59
2019-06-20T09:08:23.248Z,56.41
2019-06-20T09:09:23.214Z,56.61
2019-06-20T09:10:23.203Z,56.44
2019-06-20T09:11:23.195Z,57.04
2019-06-20T09:12:23.187Z,56.12
2019-06-20T09:13:23.195Z,55.49
2019-06-20T09:14:23.159Z,50.76
2019-06-20T09:15:23.146Z,49.32
2019-06-20T09:16:24.801Z,48.68
2019-06-20T09:17:23.134Z,48.02
2019-06-20T09:18:23.134Z,48.04
2019-06-20T09:19:23.106Z,46.94
2019-06-20T09:20:23.093Z,45.20
2019-06-20T09:21:23.093Z,42.39
2019-06-20T09:22:23.072Z,45.03
2019-06-20T09:23:23.080Z,45.43
2019-06-20T09:24:23.055Z,47.67
2019-06-20T09:25:23.041Z,47.69
2019-06-20T09:26:23.029Z,47.55
2019-06-20T09:27:23.017Z,45.17
2019-06-20T09:28:23.026Z,42.55
2019-06-20T09:29:22.996Z,44.56
2019-06-20T09:30:22.992Z,44.29
2019-06-20T09:31:22.987Z,46.44
2019-06-20T09:32:22.969Z,46.78
2019-06-20T09:33:22.972Z,48.93
2019-06-20T09:34:22.944Z,49.47
2019-06-20T09:35:22.930Z,50.58
2019-06-20T09:36:22.918Z,51.00
2019-06-20T09:37:22.909Z,50.73
2019-06-20T09:38:22.915Z,52.47
2019-06-20T09:39:22.885Z,54.10
2019-06-20T09:40:22.877Z,53.36
2019-06-20T09:41:22.866Z,55.30
2019-06-20T09:42:22.856Z,55.30
2019-06-20T09:43:27.574Z,55.93
2019-06-20T09:44:23.830Z,56.62
2019-06-20T09:45:22.820Z,56.30
2019-06-20T09:46:22.810Z,56.49
2019-06-20T09:47:22.802Z,56.87
2019-06-20T09:48:22.784Z,55.74
2019-06-20T09:49:22.792Z,51.32
2019-06-20T09:50:22.764Z,49.94
2019-06-20T09:51:22.759Z,50.26
2019-06-20T09:52:22.792Z,50.71
2019-06-20T09:53:22.728Z,52.02
2019-06-20T09:54:22.736Z,55.15
2019-06-20T09:55:22.704Z,54.57
2019-06-20T09:56:22.693Z,55.82
2019-06-20T09:57:22.683Z,56.77
2019-06-20T09:58:22.670Z,56.89
2019-06-20T09:59:27.519Z,57.49
2019-06-20T10:00:23.648Z,58.41
2019-06-20T10:01:22.636Z,58.88
2019-06-20T10:02:22.638Z,57.69
2019-06-20T10:03:22.617Z,56.21
2019-06-20T10:04:22.622Z,55.62
2019-06-20T10:05:22.594Z,56.24
2019-06-20T10:06:22.580Z,56.74
2019-06-20T10:07:22.568Z,56.49
2019-06-20T10:08:22.558Z,56.59
2019-06-20T10:09:22.573Z,57.19
2019-06-20T10:10:22.598Z,56.23
2019-06-20T10:11:22.523Z,56.99
2019-06-20T10:12:22.519Z,56.70
2019-06-20T10:13:22.507Z,57.49
2019-06-20T10:14:22.520Z,58.62
2019-06-20T10:15:22.478Z,52.81
2019-06-20T10:16:22.467Z,49.49
2019-06-20T10:17:22.454Z,48.12
2019-06-20T10:18:22.448Z,45.09
2019-06-20T10:19:22.454Z,47.68
2019-06-20T10:20:22.426Z,47.33
2019-06-20T10:21:22.409Z,47.67
2019-06-20T10:22:22.402Z,48.90
2019-06-20T10:23:22.392Z,48.70
2019-06-20T10:24:22.419Z,53.43
2019-06-20T10:25:22.370Z,53.08
2019-06-20T10:26:22.357Z,54.80
2019-06-20T10:27:22.350Z,54.25
2019-06-20T10:28:22.333Z,55.97
2019-06-20T10:29:22.328Z,56.40
2019-06-20T10:30:22.331Z,56.70
2019-06-20T10:31:22.303Z,56.79
2019-06-20T10:32:22.291Z,57.46
2019-06-20T10:33:22.276Z,55.65
2019-06-20T10:34:22.267Z,55.85
2019-06-20T10:35:22.270Z,55.22
2019-06-20T10:36:22.245Z,52.96
2019-06-20T10:37:22.230Z,55.11
2019-06-20T10:38:22.227Z,53.11
2019-06-20T10:39:22.208Z,52.44
2019-06-20T10:40:22.212Z,51.25
2019-06-20T10:41:22.182Z,52.69
2019-06-20T10:42:22.174Z,54.22
2019-06-20T10:43:22.159Z,52.61
2019-06-20T10:44:22.155Z,49.79
2019-06-20T10:45:22.156Z,48.22
2019-06-20T10:46:22.127Z,45.96
2019-06-20T10:47:32.397Z,44.02
2019-06-20T10:48:23.109Z,42.00
2019-06-20T10:49:22.097Z,40.86
2019-06-20T10:50:22.107Z,37.98
2019-06-20T10:51:22.080Z,38.82
2019-06-20T10:52:22.062Z,41.74
2019-06-20T10:53:22.054Z,43.52
2019-06-20T10:54:22.038Z,46.76
2019-06-20T10:55:22.045Z,49.05
2019-06-20T10:56:22.023Z,50.60
2019-06-20T10:57:22.008Z,52.64
2019-06-20T10:58:21.994Z,52.14
2019-06-20T10:59:21.992Z,50.76
2019-06-20T11:00:30.727Z,52.64
2019-06-20T11:01:22.968Z,51.23
2019-06-20T11:02:21.960Z,48.55
2019-06-20T11:03:21.942Z,45.79
2019-06-20T11:04:21.939Z,43.66
2019-06-20T11:05:21.929Z,45.73
2019-06-20T11:06:21.947Z,47.33
2019-06-20T11:07:21.905Z,44.76
2019-06-20T11:08:21.886Z,44.96
2019-06-20T11:09:21.877Z,43.93
2019-06-20T11:10:21.861Z,44.38
2019-06-20T11:11:21.911Z,43.75
2019-06-20T11:12:21.840Z,42.53
2019-06-20T11:13:21.846Z,41.98
2019-06-20T11:14:21.821Z,42.53
2019-06-20T11:15:21.809Z,39.78
2019-06-20T11:16:21.821Z,41.63
2019-06-20T11:17:21.785Z,42.91
2019-06-20T11:18:21.778Z,43.13
2019-06-20T11:19:21.767Z,43.64
2019-06-20T11:20:21.755Z,43.62
2019-06-20T11:21:21.774Z,44.02
2019-06-20T11:22:21.780Z,42.98
2019-06-20T11:23:21.723Z,40.94
2019-06-20T11:24:21.919Z,40.55
2019-06-20T11:25:21.700Z,40.01
2019-06-20T11:26:21.715Z,39.33
2019-06-20T11:27:21.717Z,39.35
2019-06-20T11:28:21.667Z,40.01
2019-06-20T11:29:21.660Z,40.84
2019-06-20T11:30:21.655Z,42.85
2019-06-20T11:31:21.658Z,41.83
2019-06-20T11:32:21.627Z,45.06
2019-06-20T11:33:21.615Z,43.68
2019-06-20T11:34:21.604Z,48.07
2019-06-20T11:35:21.596Z,49.45
2019-06-20T11:36:21.582Z,46.91
2019-06-20T11:37:21.590Z,45.94
2019-06-20T11:38:21.562Z,46.93
2019-06-20T11:39:21.552Z,46.63
2019-06-20T11:40:21.542Z,47.72
2019-06-20T11:41:21.548Z,47.74
2019-06-20T11:42:21.523Z,47.99
2019-06-20T11:43:21.522Z,49.10
2019-06-20T11:44:21.497Z,49.52
2019-06-20T11:45:21.507Z,50.41
2019-06-20T11:46:21.494Z,48.82
2019-06-20T11:47:21.465Z,50.43
2019-06-20T11:48:21.456Z,48.94
2019-06-20T11:49:21.439Z,48.97
2019-06-20T11:50:21.436Z,50.43
2019-06-20T11:51:21.441Z,50.93
2019-06-20T11:52:21.404Z,51.42
2019-06-20T11:53:21.394Z,48.40
2019-06-20T11:54:21.385Z,49.27
2019-06-20T11:55:21.372Z,47.77
2019-06-20T11:56:21.358Z,47.44
2019-06-20T11:57:21.372Z,48.36
2019-06-20T11:58:23.477Z,47.47
2019-06-20T11:59:21.325Z,47.86
2019-06-20T12:00:21.318Z,48.58
2019-06-20T12:01:32.509Z,49.37
2019-06-20T12:02:22.324Z,48.68
2019-06-20T12:03:21.279Z,48.38
2019-06-20T12:04:21.271Z,48.58
2019-06-20T12:05:21.259Z,48.58
2019-06-20T12:06:21.246Z,48.77
2019-06-20T12:07:21.250Z,49.07
2019-06-20T12:08:21.222Z,49.10
2019-06-20T12:09:21.213Z,48.90
2019-06-20T12:10:21.201Z,49.71
2019-06-20T12:11:21.188Z,50.73
2019-06-20T12:12:21.208Z,50.63
2019-06-20T12:13:21.165Z,50.76
2019-06-20T12:14:21.154Z,50.95
2019-06-20T12:15:21.141Z,50.88
2019-06-20T12:16:21.130Z,51.37
2019-06-20T12:17:21.144Z,51.70
2019-06-20T12:18:21.112Z,52.72
2019-06-20T12:19:21.096Z,53.31
2019-06-20T12:20:21.085Z,53.51
2019-06-20T12:21:21.082Z,52.61
2019-06-20T12:22:21.083Z,53.11
2019-06-20T12:23:21.051Z,53.33
2019-06-20T12:24:28.174Z,53.53
2019-06-20T12:25:21.025Z,53.63
2019-06-20T12:26:21.023Z,55.12
2019-06-20T12:27:21.028Z,53.23
2019-06-20T12:28:20.994Z,54.23
2019-06-20T12:29:20.985Z,53.73
2019-06-20T12:30:20.969Z,53.21
2019-06-20T12:31:20.961Z,53.41
2019-06-20T12:32:20.966Z,53.61
2019-06-20T12:33:20.939Z,51.52
2019-06-20T12:34:21.012Z,52.31
2019-06-20T12:35:20.945Z,53.11
2019-06-20T12:36:20.908Z,53.01
2019-06-20T12:37:20.911Z,52.24
2019-06-20T12:38:20.881Z,52.26
2019-06-20T12:39:20.869Z,54.35
2019-06-20T12:40:20.858Z,54.43
2019-06-20T12:41:20.845Z,55.02
2019-06-20T12:42:20.850Z,54.23
2019-06-20T12:43:20.824Z,54.06
2019-06-20T12:44:20.823Z,53.66
2019-06-20T12:45:20.805Z,54.23
2019-06-20T12:46:20.790Z,54.23
2019-06-20T12:47:20.813Z,53.73
2019-06-20T12:48:20.766Z,54.33
2019-06-20T12:49:23.826Z,52.94
2019-06-20T12:50:20.744Z,54.46
2019-06-20T12:51:20.745Z,53.56
2019-06-20T12:52:20.717Z,52.96